sensor_id;sensor_type;location;lat;lon;timestamp;P1;durP1;ratioP1;P2;durP2;ratioP2
71238;SDS011;61342;51.442;7.370;2023-01-13T00:00:26;1.20;;;0.77;;
71238;SDS011;61342;51.442;7.370;2023-01-13T00:01:26;1.50;;;0.80;;
71238;SDS011;61342;51.442;7.370;2023-01-13T00:02:28;1.57;;;0.90;;
71238;SDS011;61342;51.442;7.370;2023-01-13T00:03:28;1.00;;;0.90;;
71238;SDS011;61342;51.442;7.370;2023-01-13T00:04:29;2.23;;;0.93;;
71238;SDS011;61342;51.442;7.370;2023-01-13T00:05:30;1.47;;;0.80;;
71238;SDS011;61342;51.442;7.370;2023-01-13T00:06:31;1.00;;;0.73;;
71238;SDS011;61342;51.442;7.370;2023-01-13T00:07:31;2.10;;;0.87;;
71238;SDS011;61342;51.442;7.370;2023-01-13T00:08:32;0.73;;;0.70;;
71238;SDS011;61342;51.442;7.370;2023-01-13T00:09:33;0.97;;;0.87;;
71238;SDS011;61342;51.442;7.370;2023-01-13T00:10:36;1.90;;;0.90;;
71238;SDS011;61342;51.442;7.370;2023-01-13T00:11:37;0.80;;;0.80;;
71238;SDS011;61342;51.442;7.370;2023-01-13T00:12:38;2.10;;;0.80;;
71238;SDS011;61342;51.442;7.370;2023-01-13T00:13:39;0.77;;;0.67;;
71238;SDS011;61342;51.442;7.370;2023-01-13T00:14:40;0.97;;;0.60;;
71238;SDS011;61342;51.442;7.370;2023-01-13T00:15:41;0.90;;;0.90;;
71238;SDS011;61342;51.442;7.370;2023-01-13T00:16:41;1.23;;;0.70;;
71238;SDS011;61342;51.442;7.370;2023-01-13T00:17:42;0.87;;;0.83;;
71238;SDS011;61342;51.442;7.370;2023-01-13T00:18:45;0.80;;;0.80;;
71238;SDS011;61342;51.442;7.370;2023-01-13T00:19:46;0.70;;;0.67;;
71238;SDS011;61342;51.442;7.370;2023-01-13T00:20:47;0.70;;;0.70;;
71238;SDS011;61342;51.442;7.370;2023-01-13T00:21:47;0.90;;;0.80;;
71238;SDS011;61342;51.442;7.370;2023-01-13T00:22:50;0.93;;;0.83;;
71238;SDS011;61342;51.442;7.370;2023-01-13T00:23:52;1.33;;;0.80;;
71238;SDS011;61342;51.442;7.370;2023-01-13T00:24:54;0.70;;;0.70;;
71238;SDS011;61342;51.442;7.370;2023-01-13T00:26:01;0.80;;;0.80;;
71238;SDS011;61342;51.442;7.370;2023-01-13T00:27:04;0.87;;;0.70;;
71238;SDS011;61342;51.442;7.370;2023-01-13T00:28:07;0.70;;;0.70;;
71238;SDS011;61342;51.442;7.370;2023-01-13T00:29:15;2.07;;;0.80;;
71238;SDS011;61342;51.442;7.370;2023-01-13T00:30:15;0.50;;;0.50;;
71238;SDS011;61342;51.442;7.370;2023-01-13T00:31:20;1.23;;;0.70;;
71238;SDS011;61342;51.442;7.370;2023-01-13T00:32:21;0.83;;;0.83;;
71238;SDS011;61342;51.442;7.370;2023-01-13T00:33:21;1.00;;;0.80;;
71238;SDS011;61342;51.442;7.370;2023-01-13T00:34:26;1.33;;;0.80;;
71238;SDS011;61342;51.442;7.370;2023-01-13T00:35:27;1.70;;;0.83;;
71238;SDS011;61342;51.442;7.370;2023-01-13T00:36:27;2.63;;;0.97;;
71238;SDS011;61342;51.442;7.370;2023-01-13T00:37:29;1.43;;;0.70;;
71238;SDS011;61342;51.442;7.370;2023-01-13T00:38:30;1.50;;;0.90;;
71238;SDS011;61342;51.442;7.370;2023-01-13T00:39:32;1.37;;;0.80;;
71238;SDS011;61342;51.442;7.370;2023-01-13T00:40:32;3.13;;;0.90;;
71238;SDS011;61342;51.442;7.370;2023-01-13T00:41:36;1.43;;;0.77;;
71238;SDS011;61342;51.442;7.370;2023-01-13T00:42:55;2.33;;;0.83;;
71238;SDS011;61342;51.442;7.370;2023-01-13T00:44:14;1.80;;;1.00;;
71238;SDS011;61342;51.442;7.370;2023-01-13T00:45:14;1.60;;;0.90;;
71238;SDS011;61342;51.442;7.370;2023-01-13T00:46:17;1.47;;;0.90;;
71238;SDS011;61342;51.442;7.370;2023-01-13T00:47:19;2.40;;;0.80;;
71238;SDS011;61342;51.442;7.370;2023-01-13T00:48:21;0.90;;;0.80;;
71238;SDS011;61342;51.442;7.370;2023-01-13T00:49:23;2.27;;;0.90;;
71238;SDS011;61342;51.442;7.370;2023-01-13T00:50:23;2.80;;;1.00;;
71238;SDS011;61342;51.442;7.370;2023-01-13T00:51:24;3.47;;;1.10;;
71238;SDS011;61342;51.442;7.370;2023-01-13T00:52:25;2.00;;;0.93;;
71238;SDS011;61342;51.442;7.370;2023-01-13T00:53:26;2.60;;;1.13;;
71238;SDS011;61342;51.442;7.370;2023-01-13T00:54:28;2.23;;;0.80;;
71238;SDS011;61342;51.442;7.370;2023-01-13T00:55:29;1.27;;;0.90;;
71238;SDS011;61342;51.442;7.370;2023-01-13T00:56:30;2.10;;;0.80;;
71238;SDS011;61342;51.442;7.370;2023-01-13T00:57:31;2.10;;;0.97;;
71238;SDS011;61342;51.442;7.370;2023-01-13T00:58:32;1.20;;;1.00;;
71238;SDS011;61342;51.442;7.370;2023-01-13T00:59:33;3.80;;;1.03;;
71238;SDS011;61342;51.442;7.370;2023-01-13T01:00:37;3.30;;;1.10;;
71238;SDS011;61342;51.442;7.370;2023-01-13T01:01:37;2.20;;;1.00;;
71238;SDS011;61342;51.442;7.370;2023-01-13T01:02:41;3.03;;;1.10;;
71238;SDS011;61342;51.442;7.370;2023-01-13T01:03:42;3.43;;;1.10;;
71238;SDS011;61342;51.442;7.370;2023-01-13T01:04:42;4.13;;;1.00;;
71238;SDS011;61342;51.442;7.370;2023-01-13T01:05:43;3.67;;;1.20;;
71238;SDS011;61342;51.442;7.370;2023-01-13T01:06:43;3.33;;;1.07;;
71238;SDS011;61342;51.442;7.370;2023-01-13T01:07:44;2.00;;;1.10;;
71238;SDS011;61342;51.442;7.370;2023-01-13T01:08:45;2.03;;;1.10;;
71238;SDS011;61342;51.442;7.370;2023-01-13T01:09:46;4.17;;;1.10;;
71238;SDS011;61342;51.442;7.370;2023-01-13T01:10:46;6.17;;;1.37;;
71238;SDS011;61342;51.442;7.370;2023-01-13T01:11:46;6.13;;;1.40;;
71238;SDS011;61342;51.442;7.370;2023-01-13T01:12:47;3.63;;;1.17;;
71238;SDS011;61342;51.442;7.370;2023-01-13T01:13:50;2.90;;;1.27;;
71238;SDS011;61342;51.442;7.370;2023-01-13T01:14:51;3.17;;;1.50;;
71238;SDS011;61342;51.442;7.370;2023-01-13T01:15:51;2.37;;;1.23;;
71238;SDS011;61342;51.442;7.370;2023-01-13T01:16:52;4.93;;;1.50;;
71238;SDS011;61342;51.442;7.370;2023-01-13T01:17:53;5.33;;;1.63;;
71238;SDS011;61342;51.442;7.370;2023-01-13T01:18:54;4.73;;;1.57;;
71238;SDS011;61342;51.442;7.370;2023-01-13T01:19:54;4.23;;;1.23;;
71238;SDS011;61342;51.442;7.370;2023-01-13T01:20:57;4.20;;;1.43;;
71238;SDS011;61342;51.442;7.370;2023-01-13T01:21:59;5.07;;;1.70;;
71238;SDS011;61342;51.442;7.370;2023-01-13T01:22:59;4.50;;;1.43;;
71238;SDS011;61342;51.442;7.370;2023-01-13T01:24:02;5.77;;;1.50;;
71238;SDS011;61342;51.442;7.370;2023-01-13T01:25:04;3.60;;;1.63;;
71238;SDS011;61342;51.442;7.370;2023-01-13T01:26:09;6.37;;;1.53;;
71238;SDS011;61342;51.442;7.370;2023-01-13T01:27:14;5.37;;;1.50;;
71238;SDS011;61342;51.442;7.370;2023-01-13T01:28:14;4.50;;;1.50;;
71238;SDS011;61342;51.442;7.370;2023-01-13T01:29:17;3.87;;;1.30;;
71238;SDS011;61342;51.442;7.370;2023-01-13T01:30:17;9.40;;;1.57;;
71238;SDS011;61342;51.442;7.370;2023-01-13T01:31:19;9.37;;;1.70;;
71238;SDS011;61342;51.442;7.370;2023-01-13T01:32:25;7.00;;;1.53;;
71238;SDS011;61342;51.442;7.370;2023-01-13T01:33:28;5.00;;;1.60;;
71238;SDS011;61342;51.442;7.370;2023-01-13T01:34:28;4.03;;;1.50;;
71238;SDS011;61342;51.442;7.370;2023-01-13T01:35:29;3.53;;;1.30;;
71238;SDS011;61342;51.442;7.370;2023-01-13T01:36:29;5.67;;;2.03;;
71238;SDS011;61342;51.442;7.370;2023-01-13T01:37:30;2.63;;;1.37;;
71238;SDS011;61342;51.442;7.370;2023-01-13T01:38:33;4.33;;;1.50;;
71238;SDS011;61342;51.442;7.370;2023-01-13T01:39:33;5.50;;;1.63;;
71238;SDS011;61342;51.442;7.370;2023-01-13T01:40:34;4.20;;;1.60;;
71238;SDS011;61342;51.442;7.370;2023-01-13T01:41:37;4.57;;;1.80;;
71238;SDS011;61342;51.442;7.370;2023-01-13T01:42:37;5.37;;;1.40;;
71238;SDS011;61342;51.442;7.370;2023-01-13T01:44:00;8.00;;;1.77;;
71238;SDS011;61342;51.442;7.370;2023-01-13T01:45:22;8.80;;;1.90;;
71238;SDS011;61342;51.442;7.370;2023-01-13T01:46:26;4.37;;;1.40;;
71238;SDS011;61342;51.442;7.370;2023-01-13T01:47:30;7.60;;;2.10;;
71238;SDS011;61342;51.442;7.370;2023-01-13T01:48:32;8.40;;;1.87;;
71238;SDS011;61342;51.442;7.370;2023-01-13T01:49:41;4.97;;;1.73;;
71238;SDS011;61342;51.442;7.370;2023-01-13T01:50:45;11.00;;;1.87;;
71238;SDS011;61342;51.442;7.370;2023-01-13T01:52:53;9.90;;;1.93;;
71238;SDS011;61342;51.442;7.370;2023-01-13T01:53:38;8.53;;;1.90;;
71238;SDS011;61342;51.442;7.370;2023-01-13T01:54:57;7.57;;;1.83;;
71238;SDS011;61342;51.442;7.370;2023-01-13T01:56:06;10.10;;;2.00;;
71238;SDS011;61342;51.442;7.370;2023-01-13T01:57:12;7.90;;;1.80;;
71238;SDS011;61342;51.442;7.370;2023-01-13T01:58:18;6.37;;;1.53;;
71238;SDS011;61342;51.442;7.370;2023-01-13T01:59:32;6.37;;;1.80;;
71238;SDS011;61342;51.442;7.370;2023-01-13T02:00:35;7.67;;;1.60;;
71238;SDS011;61342;51.442;7.370;2023-01-13T02:01:35;8.77;;;2.00;;
71238;SDS011;61342;51.442;7.370;2023-01-13T02:02:37;5.53;;;1.60;;
71238;SDS011;61342;51.442;7.370;2023-01-13T02:03:41;10.70;;;2.13;;
71238;SDS011;61342;51.442;7.370;2023-01-13T02:04:48;11.70;;;2.37;;
71238;SDS011;61342;51.442;7.370;2023-01-13T02:05:50;8.17;;;1.90;;
71238;SDS011;61342;51.442;7.370;2023-01-13T02:06:51;8.17;;;2.10;;
71238;SDS011;61342;51.442;7.370;2023-01-13T02:07:53;8.30;;;1.90;;
71238;SDS011;61342;51.442;7.370;2023-01-13T02:08:56;8.60;;;2.07;;
71238;SDS011;61342;51.442;7.370;2023-01-13T02:10:00;8.00;;;1.67;;
71238;SDS011;61342;51.442;7.370;2023-01-13T02:11:05;7.30;;;1.83;;
71238;SDS011;61342;51.442;7.370;2023-01-13T02:12:26;6.83;;;2.07;;
71238;SDS011;61342;51.442;7.370;2023-01-13T02:13:31;7.23;;;1.77;;
71238;SDS011;61342;51.442;7.370;2023-01-13T02:14:31;9.57;;;2.00;;
71238;SDS011;61342;51.442;7.370;2023-01-13T02:21:11;3.67;;;1.60;;
71238;SDS011;61342;51.442;7.370;2023-01-13T02:31:06;7.07;;;1.60;;
71238;SDS011;61342;51.442;7.370;2023-01-13T02:35:20;8.00;;;1.53;;
71238;SDS011;61342;51.442;7.370;2023-01-13T02:37:56;4.50;;;1.83;;
71238;SDS011;61342;51.442;7.370;2023-01-13T02:39:15;6.77;;;1.97;;
71238;SDS011;61342;51.442;7.370;2023-01-13T02:40:27;7.60;;;2.07;;
71238;SDS011;61342;51.442;7.370;2023-01-13T02:41:45;9.23;;;1.87;;
71238;SDS011;61342;51.442;7.370;2023-01-13T02:44:32;6.17;;;1.57;;
71238;SDS011;61342;51.442;7.370;2023-01-13T02:47:16;4.00;;;1.70;;
71238;SDS011;61342;51.442;7.370;2023-01-13T02:48:23;6.90;;;1.83;;
71238;SDS011;61342;51.442;7.370;2023-01-13T02:50:39;8.73;;;2.00;;
71238;SDS011;61342;51.442;7.370;2023-01-13T02:51:43;6.47;;;1.90;;
71238;SDS011;61342;51.442;7.370;2023-01-13T02:52:47;4.93;;;1.50;;
71238;SDS011;61342;51.442;7.370;2023-01-13T02:55:06;4.07;;;1.30;;
71238;SDS011;61342;51.442;7.370;2023-01-13T02:56:11;4.30;;;1.57;;
71238;SDS011;61342;51.442;7.370;2023-01-13T02:57:15;3.77;;;1.60;;
71238;SDS011;61342;51.442;7.370;2023-01-13T02:58:20;5.03;;;1.53;;
71238;SDS011;61342;51.442;7.370;2023-01-13T02:59:23;3.43;;;1.40;;
71238;SDS011;61342;51.442;7.370;2023-01-13T03:00:26;4.23;;;1.50;;
71238;SDS011;61342;51.442;7.370;2023-01-13T03:01:28;4.93;;;1.60;;
71238;SDS011;61342;51.442;7.370;2023-01-13T03:02:28;7.63;;;1.47;;
71238;SDS011;61342;51.442;7.370;2023-01-13T03:03:29;6.47;;;1.70;;
71238;SDS011;61342;51.442;7.370;2023-01-13T03:05:54;3.60;;;1.40;;
71238;SDS011;61342;51.442;7.370;2023-01-13T03:07:10;5.67;;;1.50;;
71238;SDS011;61342;51.442;7.370;2023-01-13T03:11:27;5.27;;;1.50;;
71238;SDS011;61342;51.442;7.370;2023-01-13T03:20:05;7.03;;;1.90;;
71238;SDS011;61342;51.442;7.370;2023-01-13T03:23:36;4.97;;;1.30;;
71238;SDS011;61342;51.442;7.370;2023-01-13T03:26:11;2.90;;;1.40;;
71238;SDS011;61342;51.442;7.370;2023-01-13T03:29:20;5.73;;;1.70;;
71238;SDS011;61342;51.442;7.370;2023-01-13T03:31:24;6.33;;;2.50;;
71238;SDS011;61342;51.442;7.370;2023-01-13T03:32:29;6.03;;;1.40;;
71238;SDS011;61342;51.442;7.370;2023-01-13T03:33:34;6.83;;;1.60;;
71238;SDS011;61342;51.442;7.370;2023-01-13T03:34:46;5.30;;;1.50;;
71238;SDS011;61342;51.442;7.370;2023-01-13T03:35:54;6.53;;;1.80;;
71238;SDS011;61342;51.442;7.370;2023-01-13T03:37:01;8.37;;;2.17;;
71238;SDS011;61342;51.442;7.370;2023-01-13T03:39:08;7.07;;;1.77;;
71238;SDS011;61342;51.442;7.370;2023-01-13T03:40:15;10.23;;;2.47;;
71238;SDS011;61342;51.442;7.370;2023-01-13T03:41:25;8.83;;;2.03;;
71238;SDS011;61342;51.442;7.370;2023-01-13T03:42:31;10.03;;;2.17;;
71238;SDS011;61342;51.442;7.370;2023-01-13T03:44:23;10.23;;;2.43;;
71238;SDS011;61342;51.442;7.370;2023-01-13T03:45:21;6.53;;;2.10;;
71238;SDS011;61342;51.442;7.370;2023-01-13T03:46:25;9.17;;;1.80;;
71238;SDS011;61342;51.442;7.370;2023-01-13T03:47:41;11.03;;;2.17;;
71238;SDS011;61342;51.442;7.370;2023-01-13T03:48:50;8.87;;;1.90;;
71238;SDS011;61342;51.442;7.370;2023-01-13T03:51:20;9.30;;;1.77;;
71238;SDS011;61342;51.442;7.370;2023-01-13T03:52:25;9.03;;;2.30;;
71238;SDS011;61342;51.442;7.370;2023-01-13T03:53:35;9.70;;;2.50;;
71238;SDS011;61342;51.442;7.370;2023-01-13T03:54:44;9.90;;;2.50;;
71238;SDS011;61342;51.442;7.370;2023-01-13T03:55:54;6.43;;;1.67;;
71238;SDS011;61342;51.442;7.370;2023-01-13T03:57:00;9.87;;;1.93;;
71238;SDS011;61342;51.442;7.370;2023-01-13T03:59:09;9.33;;;2.00;;
71238;SDS011;61342;51.442;7.370;2023-01-13T04:00:13;5.87;;;1.80;;
71238;SDS011;61342;51.442;7.370;2023-01-13T04:01:25;6.50;;;1.70;;
71238;SDS011;61342;51.442;7.370;2023-01-13T04:04:02;6.57;;;1.50;;
71238;SDS011;61342;51.442;7.370;2023-01-13T04:05:06;10.10;;;1.87;;
71238;SDS011;61342;51.442;7.370;2023-01-13T04:06:52;6.50;;;1.90;;
71238;SDS011;61342;51.442;7.370;2023-01-13T04:07:36;8.93;;;1.93;;
71238;SDS011;61342;51.442;7.370;2023-01-13T04:08:50;8.37;;;1.83;;
71238;SDS011;61342;51.442;7.370;2023-01-13T04:09:55;7.47;;;1.80;;
71238;SDS011;61342;51.442;7.370;2023-01-13T04:11:02;9.83;;;1.77;;
71238;SDS011;61342;51.442;7.370;2023-01-13T04:12:10;5.30;;;1.60;;
71238;SDS011;61342;51.442;7.370;2023-01-13T04:13:13;8.53;;;2.30;;
71238;SDS011;61342;51.442;7.370;2023-01-13T04:14:18;5.80;;;1.97;;
71238;SDS011;61342;51.442;7.370;2023-01-13T04:15:21;10.13;;;2.00;;
71238;SDS011;61342;51.442;7.370;2023-01-13T04:16:22;9.13;;;2.23;;
71238;SDS011;61342;51.442;7.370;2023-01-13T04:17:23;6.30;;;2.00;;
71238;SDS011;61342;51.442;7.370;2023-01-13T04:18:25;7.53;;;1.90;;
71238;SDS011;61342;51.442;7.370;2023-01-13T04:19:26;6.60;;;1.60;;
71238;SDS011;61342;51.442;7.370;2023-01-13T04:20:27;5.53;;;1.80;;
71238;SDS011;61342;51.442;7.370;2023-01-13T04:21:27;8.67;;;1.90;;
71238;SDS011;61342;51.442;7.370;2023-01-13T04:22:29;9.40;;;2.13;;
71238;SDS011;61342;51.442;7.370;2023-01-13T04:23:29;8.23;;;1.70;;
71238;SDS011;61342;51.442;7.370;2023-01-13T04:24:32;4.33;;;1.63;;
71238;SDS011;61342;51.442;7.370;2023-01-13T04:25:33;8.50;;;1.80;;
71238;SDS011;61342;51.442;7.370;2023-01-13T04:26:33;7.17;;;1.80;;
71238;SDS011;61342;51.442;7.370;2023-01-13T04:27:34;6.63;;;2.27;;
71238;SDS011;61342;51.442;7.370;2023-01-13T04:28:34;9.80;;;2.00;;
71238;SDS011;61342;51.442;7.370;2023-01-13T04:29:35;6.60;;;2.10;;
71238;SDS011;61342;51.442;7.370;2023-01-13T04:30:36;11.47;;;2.10;;
71238;SDS011;61342;51.442;7.370;2023-01-13T04:31:37;9.83;;;2.20;;
71238;SDS011;61342;51.442;7.370;2023-01-13T04:32:37;10.23;;;2.30;;
71238;SDS011;61342;51.442;7.370;2023-01-13T04:33:37;3.47;;;2.00;;
71238;SDS011;61342;51.442;7.370;2023-01-13T04:34:38;11.13;;;2.30;;
71238;SDS011;61342;51.442;7.370;2023-01-13T04:35:38;6.97;;;2.27;;
71238;SDS011;61342;51.442;7.370;2023-01-13T04:36:39;7.17;;;1.80;;
71238;SDS011;61342;51.442;7.370;2023-01-13T04:37:39;10.70;;;2.23;;
71238;SDS011;61342;51.442;7.370;2023-01-13T04:38:40;6.40;;;1.93;;
71238;SDS011;61342;51.442;7.370;2023-01-13T04:39:40;7.83;;;2.13;;
71238;SDS011;61342;51.442;7.370;2023-01-13T04:40:41;8.77;;;2.13;;
71238;SDS011;61342;51.442;7.370;2023-01-13T04:41:44;8.27;;;1.87;;
71238;SDS011;61342;51.442;7.370;2023-01-13T04:43:02;9.10;;;2.13;;
71238;SDS011;61342;51.442;7.370;2023-01-13T04:44:02;9.67;;;2.10;;
71238;SDS011;61342;51.442;7.370;2023-01-13T04:45:03;10.33;;;2.20;;
71238;SDS011;61342;51.442;7.370;2023-01-13T04:46:04;6.53;;;1.83;;
71238;SDS011;61342;51.442;7.370;2023-01-13T04:47:05;10.27;;;2.37;;
71238;SDS011;61342;51.442;7.370;2023-01-13T04:48:05;8.13;;;2.40;;
71238;SDS011;61342;51.442;7.370;2023-01-13T04:49:05;6.70;;;1.90;;
71238;SDS011;61342;51.442;7.370;2023-01-13T04:50:06;12.80;;;2.70;;
71238;SDS011;61342;51.442;7.370;2023-01-13T04:51:07;6.73;;;2.17;;
71238;SDS011;61342;51.442;7.370;2023-01-13T04:52:07;7.33;;;2.10;;
71238;SDS011;61342;51.442;7.370;2023-01-13T04:53:08;9.53;;;2.50;;
71238;SDS011;61342;51.442;7.370;2023-01-13T04:54:12;12.87;;;2.43;;
71238;SDS011;61342;51.442;7.370;2023-01-13T04:55:12;10.93;;;2.17;;
71238;SDS011;61342;51.442;7.370;2023-01-13T04:56:12;9.87;;;2.50;;
71238;SDS011;61342;51.442;7.370;2023-01-13T04:57:13;9.43;;;2.20;;
71238;SDS011;61342;51.442;7.370;2023-01-13T04:58:13;11.03;;;2.47;;
71238;SDS011;61342;51.442;7.370;2023-01-13T04:59:14;9.70;;;2.27;;
71238;SDS011;61342;51.442;7.370;2023-01-13T06:00:44;7.06;;;2.36;;
71238;SDS011;61342;51.442;7.370;2023-01-13T06:02:03;12.27;;;2.33;;
71238;SDS011;61342;51.442;7.370;2023-01-13T06:03:22;10.57;;;2.53;;
71238;SDS011;61342;51.442;7.370;2023-01-13T06:04:32;11.93;;;2.53;;
71238;SDS011;61342;51.442;7.370;2023-01-13T06:05:49;9.47;;;2.13;;
71238;SDS011;61342;51.442;7.370;2023-01-13T06:07:11;10.30;;;2.67;;
71238;SDS011;61342;51.442;7.370;2023-01-13T06:08:25;8.63;;;2.00;;
71238;SDS011;61342;51.442;7.370;2023-01-13T06:09:40;12.40;;;2.73;;
71238;SDS011;61342;51.442;7.370;2023-01-13T06:11:16;10.70;;;2.53;;
71238;SDS011;61342;51.442;7.370;2023-01-13T06:12:26;8.07;;;2.43;;
71238;SDS011;61342;51.442;7.370;2023-01-13T06:13:32;14.63;;;2.77;;
71238;SDS011;61342;51.442;7.370;2023-01-13T06:14:35;11.03;;;2.90;;
71238;SDS011;61342;51.442;7.370;2023-01-13T06:15:41;15.23;;;2.77;;
71238;SDS011;61342;51.442;7.370;2023-01-13T06:16:42;15.50;;;3.37;;
71238;SDS011;61342;51.442;7.370;2023-01-13T06:17:44;13.23;;;2.80;;
71238;SDS011;61342;51.442;7.370;2023-01-13T06:18:44;11.77;;;3.27;;
71238;SDS011;61342;51.442;7.370;2023-01-13T06:19:45;14.03;;;3.03;;
71238;SDS011;61342;51.442;7.370;2023-01-13T06:20:46;10.13;;;2.40;;
71238;SDS011;61342;51.442;7.370;2023-01-13T06:21:46;13.73;;;2.80;;
71238;SDS011;61342;51.442;7.370;2023-01-13T06:22:50;13.03;;;2.80;;
71238;SDS011;61342;51.442;7.370;2023-01-13T06:23:53;12.47;;;2.90;;
71238;SDS011;61342;51.442;7.370;2023-01-13T06:24:55;14.03;;;2.90;;
71238;SDS011;61342;51.442;7.370;2023-01-13T06:27:32;8.37;;;2.50;;
71238;SDS011;61342;51.442;7.370;2023-01-13T06:28:59;12.10;;;2.60;;
71238;SDS011;61342;51.442;7.370;2023-01-13T06:31:26;11.77;;;2.27;;
71238;SDS011;61342;51.442;7.370;2023-01-13T06:34:13;8.73;;;2.30;;
71238;SDS011;61342;51.442;7.370;2023-01-13T06:35:47;12.87;;;2.50;;
71238;SDS011;61342;51.442;7.370;2023-01-13T06:39:05;10.33;;;2.63;;
71238;SDS011;61342;51.442;7.370;2023-01-13T06:40:27;11.93;;;3.67;;
71238;SDS011;61342;51.442;7.370;2023-01-13T06:41:31;11.73;;;2.47;;
71238;SDS011;61342;51.442;7.370;2023-01-13T06:42:51;14.87;;;3.13;;
71238;SDS011;61342;51.442;7.370;2023-01-13T06:44:13;15.80;;;2.60;;
71238;SDS011;61342;51.442;7.370;2023-01-13T06:46:39;14.67;;;2.97;;
71238;SDS011;61342;51.442;7.370;2023-01-13T06:47:40;12.03;;;2.50;;
71238;SDS011;61342;51.442;7.370;2023-01-13T06:48:46;8.67;;;2.73;;
71238;SDS011;61342;51.442;7.370;2023-01-13T06:49:52;7.97;;;2.60;;
71238;SDS011;61342;51.442;7.370;2023-01-13T06:50:56;9.73;;;2.50;;
71238;SDS011;61342;51.442;7.370;2023-01-13T06:51:59;10.80;;;2.90;;
71238;SDS011;61342;51.442;7.370;2023-01-13T06:53:03;17.47;;;2.93;;
71238;SDS011;61342;51.442;7.370;2023-01-13T06:54:03;14.30;;;2.37;;
71238;SDS011;61342;51.442;7.370;2023-01-13T06:55:07;14.43;;;2.83;;
71238;SDS011;61342;51.442;7.370;2023-01-13T06:56:15;9.87;;;2.90;;
71238;SDS011;61342;51.442;7.370;2023-01-13T06:57:16;13.53;;;2.50;;
71238;SDS011;61342;51.442;7.370;2023-01-13T06:58:17;8.77;;;2.47;;
71238;SDS011;61342;51.442;7.370;2023-01-13T06:59:29;7.30;;;2.27;;
71238;SDS011;61342;51.442;7.370;2023-01-13T07:00:35;17.90;;;2.83;;
71238;SDS011;61342;51.442;7.370;2023-01-13T07:01:38;15.00;;;3.20;;
71238;SDS011;61342;51.442;7.370;2023-01-13T07:02:52;10.03;;;2.23;;
71238;SDS011;61342;51.442;7.370;2023-01-13T07:04:12;11.67;;;2.73;;
71238;SDS011;61342;51.442;7.370;2023-01-13T07:05:18;11.00;;;2.60;;
71238;SDS011;61342;51.442;7.370;2023-01-13T07:06:24;7.33;;;1.97;;
71238;SDS011;61342;51.442;7.370;2023-01-13T07:07:36;8.37;;;2.40;;
71238;SDS011;61342;51.442;7.370;2023-01-13T07:08:55;12.20;;;2.70;;
71238;SDS011;61342;51.442;7.370;2023-01-13T07:09:55;6.63;;;2.30;;
71238;SDS011;61342;51.442;7.370;2023-01-13T07:11:01;11.67;;;2.53;;
71238;SDS011;61342;51.442;7.370;2023-01-13T07:12:02;8.63;;;2.30;;
71238;SDS011;61342;51.442;7.370;2023-01-13T07:13:05;16.07;;;3.17;;
71238;SDS011;61342;51.442;7.370;2023-01-13T07:14:27;9.50;;;2.73;;
71238;SDS011;61342;51.442;7.370;2023-01-13T07:15:55;8.93;;;1.97;;
71238;SDS011;61342;51.442;7.370;2023-01-13T07:16:56;15.60;;;2.40;;
71238;SDS011;61342;51.442;7.370;2023-01-13T07:17:59;10.23;;;2.73;;
71238;SDS011;61342;51.442;7.370;2023-01-13T07:19:09;10.33;;;2.73;;
71238;SDS011;61342;51.442;7.370;2023-01-13T07:20:13;7.07;;;2.27;;
71238;SDS011;61342;51.442;7.370;2023-01-13T07:21:14;7.77;;;2.20;;
71238;SDS011;61342;51.442;7.370;2023-01-13T07:22:20;10.90;;;2.27;;
71238;SDS011;61342;51.442;7.370;2023-01-13T07:23:25;9.77;;;2.47;;
71238;SDS011;61342;51.442;7.370;2023-01-13T07:24:35;11.67;;;2.77;;
71238;SDS011;61342;51.442;7.370;2023-01-13T07:25:46;12.17;;;2.63;;
71238;SDS011;61342;51.442;7.370;2023-01-13T07:26:49;11.87;;;2.63;;
71238;SDS011;61342;51.442;7.370;2023-01-13T07:27:49;9.83;;;2.40;;
71238;SDS011;61342;51.442;7.370;2023-01-13T07:28:50;11.57;;;2.60;;
71238;SDS011;61342;51.442;7.370;2023-01-13T07:29:50;11.70;;;2.67;;
71238;SDS011;61342;51.442;7.370;2023-01-13T07:30:54;13.40;;;2.43;;
71238;SDS011;61342;51.442;7.370;2023-01-13T07:31:55;10.00;;;2.23;;
71238;SDS011;61342;51.442;7.370;2023-01-13T07:32:58;10.37;;;2.80;;
71238;SDS011;61342;51.442;7.370;2023-01-13T07:34:13;9.13;;;1.97;;
71238;SDS011;61342;51.442;7.370;2023-01-13T07:35:16;11.50;;;2.90;;
71238;SDS011;61342;51.442;7.370;2023-01-13T07:36:24;6.40;;;2.20;;
71238;SDS011;61342;51.442;7.370;2023-01-13T07:37:25;10.23;;;2.13;;
71238;SDS011;61342;51.442;7.370;2023-01-13T07:38:25;9.13;;;2.20;;
71238;SDS011;61342;51.442;7.370;2023-01-13T07:39:27;11.47;;;2.50;;
71238;SDS011;61342;51.442;7.370;2023-01-13T07:40:32;8.53;;;2.30;;
71238;SDS011;61342;51.442;7.370;2023-01-13T07:41:49;11.13;;;2.57;;
71238;SDS011;61342;51.442;7.370;2023-01-13T07:43:14;7.40;;;2.43;;
71238;SDS011;61342;51.442;7.370;2023-01-13T07:44:41;11.13;;;2.37;;
71238;SDS011;61342;51.442;7.370;2023-01-13T07:45:56;7.90;;;2.30;;
71238;SDS011;61342;51.442;7.370;2023-01-13T07:47:00;10.83;;;1.93;;
71238;SDS011;61342;51.442;7.370;2023-01-13T07:49:24;11.13;;;2.30;;
71238;SDS011;61342;51.442;7.370;2023-01-13T07:50:25;12.80;;;3.00;;
71238;SDS011;61342;51.442;7.370;2023-01-13T07:51:26;9.13;;;2.30;;
71238;SDS011;61342;51.442;7.370;2023-01-13T07:52:26;8.10;;;1.87;;
71238;SDS011;61342;51.442;7.370;2023-01-13T07:53:27;8.80;;;2.17;;
71238;SDS011;61342;51.442;7.370;2023-01-13T07:54:27;8.67;;;2.50;;
71238;SDS011;61342;51.442;7.370;2023-01-13T07:55:28;9.33;;;2.17;;
71238;SDS011;61342;51.442;7.370;2023-01-13T07:56:31;10.93;;;2.90;;
71238;SDS011;61342;51.442;7.370;2023-01-13T07:57:35;9.97;;;2.40;;
71238;SDS011;61342;51.442;7.370;2023-01-13T07:58:38;9.60;;;2.80;;
71238;SDS011;61342;51.442;7.370;2023-01-13T07:59:52;8.10;;;2.47;;
71238;SDS011;61342;51.442;7.370;2023-01-13T08:01:12;8.10;;;2.23;;
71238;SDS011;61342;51.442;7.370;2023-01-13T08:02:32;9.57;;;2.40;;
71238;SDS011;61342;51.442;7.370;2023-01-13T08:03:54;11.83;;;2.77;;
71238;SDS011;61342;51.442;7.370;2023-01-13T08:04:57;11.67;;;2.47;;
71238;SDS011;61342;51.442;7.370;2023-01-13T08:06:14;8.00;;;2.00;;
71238;SDS011;61342;51.442;7.370;2023-01-13T08:07:15;6.60;;;2.03;;
71238;SDS011;61342;51.442;7.370;2023-01-13T08:08:23;9.97;;;2.93;;
71238;SDS011;61342;51.442;7.370;2023-01-13T08:09:27;10.23;;;2.27;;
71238;SDS011;61342;51.442;7.370;2023-01-13T08:10:30;8.53;;;2.00;;
71238;SDS011;61342;51.442;7.370;2023-01-13T08:11:34;8.07;;;2.43;;
71238;SDS011;61342;51.442;7.370;2023-01-13T08:12:42;8.00;;;2.07;;
71238;SDS011;61342;51.442;7.370;2023-01-13T08:14:01;9.87;;;2.17;;
71238;SDS011;61342;51.442;7.370;2023-01-13T08:15:11;8.13;;;1.90;;
71238;SDS011;61342;51.442;7.370;2023-01-13T08:16:12;10.83;;;2.73;;
71238;SDS011;61342;51.442;7.370;2023-01-13T08:17:14;9.43;;;1.90;;
71238;SDS011;61342;51.442;7.370;2023-01-13T08:18:18;9.07;;;2.33;;
71238;SDS011;61342;51.442;7.370;2023-01-13T08:19:23;10.30;;;2.43;;
71238;SDS011;61342;51.442;7.370;2023-01-13T08:20:24;8.17;;;2.40;;
71238;SDS011;61342;51.442;7.370;2023-01-13T08:21:24;11.17;;;2.43;;
71238;SDS011;61342;51.442;7.370;2023-01-13T08:22:28;9.20;;;2.37;;
71238;SDS011;61342;51.442;7.370;2023-01-13T08:23:30;8.10;;;2.43;;
71238;SDS011;61342;51.442;7.370;2023-01-13T08:24:35;8.43;;;2.37;;
71238;SDS011;61342;51.442;7.370;2023-01-13T08:25:39;8.90;;;2.30;;
71238;SDS011;61342;51.442;7.370;2023-01-13T08:26:39;8.43;;;2.40;;
71238;SDS011;61342;51.442;7.370;2023-01-13T08:27:40;12.50;;;3.03;;
71238;SDS011;61342;51.442;7.370;2023-01-13T08:28:41;8.53;;;2.37;;
71238;SDS011;61342;51.442;7.370;2023-01-13T08:29:53;14.00;;;2.30;;
71238;SDS011;61342;51.442;7.370;2023-01-13T08:31:07;7.80;;;1.90;;